createdAt,value
2024-01-11T00:01:13.950Z,100914.30
2024-01-11T00:03:46.166Z,100914.25
2024-01-11T00:06:18.114Z,100921.93
2024-01-11T00:08:50.099Z,100922.14
2024-01-11T00:11:22.069Z,100926.61
2024-01-11T00:13:54.230Z,100929.33
2024-01-11T00:16:26.072Z,100927.30
2024-01-11T00:18:58.139Z,100924.36
2024-01-11T00:21:30.072Z,100923.02
2024-01-11T00:24:01.988Z,100919.88
2024-01-11T00:26:34.312Z,100918.11
2024-01-11T00:29:06.771Z,100914.10
2024-01-11T00:31:39.346Z,100908.46
2024-01-11T00:34:11.565Z,100910.49
2024-01-11T00:36:43.580Z,100909.30
2024-01-11T00:39:15.546Z,100910.39
2024-01-11T00:41:47.441Z,100908.60
2024-01-11T00:44:19.736Z,100909.67
2024-01-11T00:46:52.142Z,100900.65
2024-01-11T00:49:24.316Z,100905.01
2024-01-11T00:51:56.876Z,100902.46
2024-01-11T00:54:28.649Z,100905.06
2024-01-11T00:57:00.847Z,100910.88
2024-01-11T00:59:32.524Z,100907.17
2024-01-11T01:02:04.585Z,100908.20
2024-01-11T01:04:39.914Z,100906.01
2024-01-11T01:07:11.919Z,100904.02
2024-01-11T01:09:43.978Z,100906.27
2024-01-11T01:12:16.089Z,100905.24
2024-01-11T01:14:48.018Z,100909.72
2024-01-11T01:17:19.891Z,100900.10
2024-01-11T01:19:51.706Z,100906.08
2024-01-11T01:22:23.580Z,100909.15
2024-01-11T01:24:55.825Z,100911.27
2024-01-11T01:27:28.109Z,100906.91
2024-01-11T01:29:59.988Z,100912.83
2024-01-11T01:32:32.902Z,100906.86
2024-01-11T01:35:05.087Z,100910.67
2024-01-11T01:37:37.041Z,100913.98
2024-01-11T01:40:11.094Z,100909.23
2024-01-11T01:42:46.500Z,100917.48
2024-01-11T01:45:19.154Z,100922.66
2024-01-11T01:47:51.017Z,100923.69
2024-01-11T01:50:23.773Z,100929.35
2024-01-11T01:52:57.274Z,100926.28
2024-01-11T01:55:30.976Z,100936.05
2024-01-11T01:58:05.769Z,100935.12
2024-01-11T02:00:37.458Z,100938.48
2024-01-11T02:03:10.847Z,100935.13
2024-01-11T02:05:42.880Z,100934.16
2024-01-11T02:08:21.879Z,100934.70
2024-01-11T02:10:54.821Z,100928.11
2024-01-11T02:13:26.580Z,100925.64
2024-01-11T02:15:58.443Z,100916.41
2024-01-11T02:18:30.955Z,100914.52
2024-01-11T02:21:03.924Z,100908.05
2024-01-11T02:23:38.822Z,100906.48
2024-01-11T02:26:11.278Z,100903.34
2024-01-11T02:28:47.395Z,100906.95
2024-01-11T02:31:19.157Z,100908.73
2024-01-11T02:33:51.712Z,100903.04
2024-01-11T02:36:23.940Z,100894.53
2024-01-11T02:38:57.197Z,100896.40
2024-01-11T02:41:30.160Z,100897.17
2024-01-11T02:44:02.885Z,100895.70
2024-01-11T02:46:35.243Z,100899.23
2024-01-11T02:49:07.532Z,100902.16
2024-01-11T02:51:39.650Z,100896.57
2024-01-11T02:54:11.491Z,100897.27
2024-01-11T02:56:43.391Z,100900.30
2024-01-11T02:59:15.622Z,100891.88
2024-01-11T03:01:47.519Z,100882.25
2024-01-11T03:04:19.168Z,100884.89
2024-01-11T03:06:50.928Z,100880.30
2024-01-11T03:09:23.636Z,100873.33
2024-01-11T03:11:55.719Z,100881.34
2024-01-11T03:14:27.701Z,100882.39
2024-01-11T03:16:59.547Z,100894.54
2024-01-11T03:19:31.434Z,100895.48
2024-01-11T03:22:07.415Z,100894.08
2024-01-11T03:24:41.838Z,100884.59
2024-01-11T03:27:13.514Z,100891.89
2024-01-11T03:29:45.309Z,100886.15
2024-01-11T03:32:17.179Z,100877.34
2024-01-11T03:34:49.003Z,100876.86
2024-01-11T03:37:20.705Z,100878.80
2024-01-11T03:39:52.819Z,100874.71
2024-01-11T03:42:24.984Z,100875.48
2024-01-11T03:44:56.817Z,100877.96
2024-01-11T03:47:28.614Z,100878.00
2024-01-11T03:50:00.793Z,100887.77
2024-01-11T03:52:32.597Z,100885.59
2024-01-11T03:55:04.683Z,100879.07
2024-01-11T03:57:36.539Z,100884.52
2024-01-11T04:00:11.973Z,100884.99
2024-01-11T04:02:43.831Z,100891.75
2024-01-11T04:05:16.799Z,100890.10
2024-01-11T04:07:48.628Z,100895.41
2024-01-11T04:10:21.256Z,100901.91
2024-01-11T04:12:53.222Z,100905.67
2024-01-11T04:15:24.833Z,100905.82
2024-01-11T04:17:57.250Z,100909.56
2024-01-11T04:20:29.500Z,100909.58
2024-01-11T04:23:01.241Z,100905.66
2024-01-11T04:25:33.077Z,100905.77
2024-01-11T04:28:05.093Z,100909.61
2024-01-11T04:30:36.883Z,100910.52
2024-01-11T04:33:08.728Z,100919.58
2024-01-11T04:35:41.173Z,100929.19
2024-01-11T04:38:13.103Z,100928.14
2024-01-11T04:40:45.182Z,100938.52
2024-01-11T04:43:17.233Z,100941.11
2024-01-11T04:45:48.860Z,100940.11
2024-01-11T04:48:21.403Z,100947.17
2024-01-11T04:50:53.936Z,100940.14
2024-01-11T04:53:26.510Z,100934.67
2024-01-11T04:55:58.631Z,100932.71
2024-01-11T04:58:30.370Z,100930.51
2024-01-11T05:01:02.917Z,100931.88
2024-01-11T05:03:35.071Z,100930.21
2024-01-11T05:06:07.855Z,100930.70
2024-01-11T05:08:39.978Z,100934.36
2024-01-11T05:11:16.946Z,100934.08
2024-01-11T05:13:49.464Z,100936.05
2024-01-11T05:16:24.614Z,100929.13
2024-01-11T05:18:57.916Z,100928.08
2024-01-11T05:21:30.060Z,100933.63
2024-01-11T05:24:02.073Z,100939.32
2024-01-11T05:26:33.954Z,100940.30
2024-01-11T05:29:06.795Z,100939.48
2024-01-11T05:31:39.234Z,100938.83
2024-01-11T05:34:13.454Z,100942.45
2024-01-11T05:36:45.451Z,100936.25
2024-01-11T05:39:18.213Z,100949.98
2024-01-11T05:41:50.063Z,100946.60
2024-01-11T05:44:21.731Z,100955.42
2024-01-11T05:46:53.436Z,100964.70
2024-01-11T05:49:25.117Z,100965.77
2024-01-11T05:51:57.413Z,100969.23
2024-01-11T05:54:29.411Z,100971.38
2024-01-11T05:57:01.109Z,100967.02
2024-01-11T05:59:33.097Z,100970.29
2024-01-11T06:02:05.550Z,100973.30
2024-01-11T06:04:37.386Z,100978.83
2024-01-11T06:07:09.102Z,100988.53
2024-01-11T06:09:40.758Z,100985.80
2024-01-11T06:12:12.923Z,100992.06
2024-01-11T06:14:44.739Z,100986.96
2024-01-11T06:17:16.957Z,100990.02
2024-01-11T06:19:48.796Z,100987.84
2024-01-11T06:22:20.770Z,100993.29
2024-01-11T06:24:52.703Z,100991.23
2024-01-11T06:27:24.409Z,100993.40
2024-01-11T06:29:56.232Z,100989.17
2024-01-11T06:32:28.615Z,100993.02
2024-01-11T06:35:00.436Z,100989.02
2024-01-11T06:37:32.362Z,100989.30
2024-01-11T06:40:04.979Z,100995.21
2024-01-11T06:42:37.446Z,100998.64
2024-01-11T06:45:11.504Z,101000.44
2024-01-11T06:47:43.679Z,101001.51
2024-01-11T06:50:16.044Z,100999.89
2024-01-11T06:52:48.140Z,100998.21
2024-01-11T06:55:20.105Z,100994.41
2024-01-11T06:57:52.091Z,100980.02
2024-01-11T07:00:24.503Z,100975.52
2024-01-11T07:02:56.278Z,100974.80
2024-01-11T07:05:28.208Z,100976.05
2024-01-11T07:08:00.380Z,100980.98
2024-01-11T07:10:33.337Z,100975.02
2024-01-11T07:13:06.166Z,100984.37
2024-01-11T07:15:38.120Z,100987.88
2024-01-11T07:18:10.334Z,100997.77
2024-01-11T07:20:42.391Z,101008.80
2024-01-11T07:23:14.955Z,101014.24
2024-01-11T07:25:47.036Z,101017.94
2024-01-11T07:28:20.813Z,101017.13
2024-01-11T07:30:52.626Z,101016.75
2024-01-11T07:33:24.772Z,101011.58
2024-01-11T07:35:57.130Z,101007.73
2024-01-11T07:38:29.015Z,101009.20
2024-01-11T07:41:00.768Z,101015.61
2024-01-11T07:43:45.552Z,101026.77
2024-01-11T07:46:33.148Z,101039.08
2024-01-11T07:49:11.484Z,101033.95
2024-01-11T07:51:43.204Z,101035.91
2024-01-11T07:54:14.991Z,101040.24
2024-01-11T07:56:46.924Z,101035.15
2024-01-11T07:59:18.936Z,101030.82
2024-01-11T08:01:51.053Z,101030.80
2024-01-11T08:04:23.051Z,101031.83
2024-01-11T08:06:55.154Z,101034.04
2024-01-11T08:09:27.365Z,101030.89
2024-01-11T08:11:59.609Z,101024.00
2024-01-11T08:14:31.567Z,101028.92
2024-01-11T08:17:05.972Z,101026.98
2024-01-11T08:19:38.750Z,101026.88
2024-01-11T08:22:11.073Z,101022.88
2024-01-11T08:24:43.204Z,101021.05
2024-01-11T08:27:16.697Z,101019.45
2024-01-11T08:29:49.410Z,101018.34
2024-01-11T08:32:28.757Z,101006.02
2024-01-11T08:35:05.731Z,101008.48
2024-01-11T08:37:37.992Z,101006.48
2024-01-11T08:40:12.395Z,101004.80
2024-01-11T08:42:44.151Z,101006.77
2024-01-11T08:45:19.588Z,101008.25
2024-01-11T08:47:51.776Z,101014.85
2024-01-11T08:50:24.798Z,101013.39
2024-01-11T08:52:57.564Z,101015.27
2024-01-11T08:55:29.953Z,101018.25
2024-01-11T08:58:01.856Z,101011.67
2024-01-11T09:00:33.788Z,101017.01
2024-01-11T09:03:06.724Z,101012.63
2024-01-11T09:05:39.824Z,101013.22
2024-01-11T09:08:11.890Z,101013.34
2024-01-11T09:10:44.077Z,101001.84
2024-01-11T09:13:16.740Z,100998.86
2024-01-11T09:15:48.932Z,100992.83
2024-01-11T09:18:21.201Z,100990.38
2024-01-11T09:20:54.226Z,100989.30
2024-01-11T09:23:26.175Z,100993.90
2024-01-11T09:25:58.537Z,100987.23
2024-01-11T09:28:30.823Z,100988.83
2024-01-11T09:31:03.419Z,100986.58
2024-01-11T09:33:35.356Z,100993.70
2024-01-11T09:36:09.845Z,100982.14
2024-01-11T09:38:41.912Z,100977.23
2024-01-11T09:41:16.141Z,100980.97
2024-01-11T09:43:50.354Z,100976.77
2024-01-11T09:46:23.958Z,100971.31
2024-01-11T09:48:57.971Z,100969.83
2024-01-11T09:51:31.622Z,100975.26
2024-01-11T09:54:03.977Z,100978.27
2024-01-11T09:56:37.286Z,100985.46
2024-01-11T09:59:11.949Z,100985.26
2024-01-11T10:01:45.805Z,100967.16
2024-01-11T10:04:18.738Z,100973.02
2024-01-11T10:06:52.307Z,100984.39
2024-01-11T10:09:25.216Z,100982.05
2024-01-11T10:11:57.206Z,100982.23
2024-01-11T10:14:29.236Z,100969.60
2024-01-11T10:17:01.390Z,100965.11
2024-01-11T10:19:33.534Z,100966.27
2024-01-11T10:22:07.935Z,100963.23
2024-01-11T10:24:39.933Z,100964.94
2024-01-11T10:27:13.944Z,100957.02
2024-01-11T10:29:46.359Z,100953.25
2024-01-11T10:32:18.986Z,100953.37
2024-01-11T10:34:53.183Z,100954.66
2024-01-11T10:37:25.425Z,100951.83
2024-01-11T10:40:00.136Z,100948.14
2024-01-11T10:42:38.446Z,100947.13
2024-01-11T10:45:17.004Z,100947.55
2024-01-11T10:47:55.973Z,100946.26
2024-01-11T10:50:32.523Z,100945.99
2024-01-11T10:53:14.872Z,100940.11
2024-01-11T10:55:48.486Z,100941.64
2024-01-11T10:58:22.159Z,100944.36
2024-01-11T11:00:56.652Z,100940.29
2024-01-11T11:03:29.736Z,100939.98
2024-01-11T11:06:02.807Z,100947.97
2024-01-11T11:08:35.533Z,100943.02
2024-01-11T11:11:09.792Z,100939.41
2024-01-11T11:13:40.863Z,100932.55
2024-01-11T11:16:12.743Z,100924.77
2024-01-11T11:18:44.871Z,100915.40
2024-01-11T11:21:17.430Z,100912.14
2024-01-11T11:23:51.569Z,100910.45
2024-01-11T11:26:23.454Z,100910.20
2024-01-11T11:28:55.812Z,100907.17
2024-01-11T11:31:44.001Z,100905.52
2024-01-11T11:34:17.943Z,100906.38
2024-01-11T11:36:56.023Z,100906.17
2024-01-11T11:39:28.062Z,100898.43
2024-01-11T11:42:02.466Z,100892.02
2024-01-11T11:44:34.596Z,100889.07
2024-01-11T11:47:20.636Z,100892.58
2024-01-11T11:50:07.586Z,100893.02
2024-01-11T11:52:40.651Z,100894.40
2024-01-11T11:55:14.540Z,100898.90
2024-01-11T11:57:47.695Z,100890.67
2024-01-11T12:00:21.231Z,100883.77
2024-01-11T12:02:56.783Z,100872.04
2024-01-11T12:05:29.443Z,100867.34
2024-01-11T12:08:02.005Z,100864.74
2024-01-11T12:10:33.908Z,100858.20
2024-01-11T12:13:06.220Z,100863.10
2024-01-11T12:15:38.278Z,100866.30
2024-01-11T12:18:10.643Z,100867.13
2024-01-11T12:20:43.271Z,100861.29
2024-01-11T12:23:15.883Z,100859.85
2024-01-11T12:25:48.428Z,100858.12
2024-01-11T12:28:20.572Z,100851.73
2024-01-11T12:30:53.284Z,100847.74
2024-01-11T12:33:26.156Z,100848.69
2024-01-11T12:35:59.344Z,100855.69
2024-01-11T12:38:34.620Z,100858.09
2024-01-11T12:41:08.579Z,100859.98
2024-01-11T12:43:40.485Z,100861.98
2024-01-11T12:46:12.881Z,100864.23
2024-01-11T12:48:45.460Z,100865.13
2024-01-11T12:51:21.853Z,100871.27
2024-01-11T12:53:56.479Z,100868.14
2024-01-11T12:56:28.939Z,100870.13
2024-01-11T12:59:10.966Z,100870.75
2024-01-11T13:01:43.223Z,100864.95
2024-01-11T13:04:16.289Z,100864.96
2024-01-11T13:06:49.675Z,100863.15
2024-01-11T13:09:21.899Z,100855.25
2024-01-11T13:11:54.346Z,100851.19
2024-01-11T13:14:26.341Z,100845.76
2024-01-11T13:16:58.860Z,100843.66
2024-01-11T13:19:31.260Z,100836.14
2024-01-11T13:22:03.943Z,100830.98
2024-01-11T13:24:37.267Z,100829.30
2024-01-11T13:27:09.259Z,100828.54
2024-01-11T13:29:41.104Z,100829.81
2024-01-11T13:32:12.958Z,100829.72
2024-01-11T13:34:47.127Z,100823.33
2024-01-11T13:37:20.026Z,100828.39
2024-01-11T13:39:52.046Z,100834.15
2024-01-11T13:42:23.748Z,100832.91
2024-01-11T13:44:55.693Z,100829.80
2024-01-11T13:47:27.863Z,100831.25
2024-01-11T13:50:02.818Z,100833.58
2024-01-11T13:52:35.270Z,100835.59
2024-01-11T13:55:08.261Z,100833.14
2024-01-11T13:57:40.635Z,100830.56
2024-01-11T14:00:14.504Z,100826.95
2024-01-11T14:02:46.580Z,100823.55
2024-01-11T14:05:19.654Z,100818.82
2024-01-11T14:07:55.793Z,100808.42
2024-01-11T14:10:28.814Z,100802.07
2024-01-11T14:13:01.150Z,100809.00
2024-01-11T14:15:33.384Z,100816.34
2024-01-11T14:18:06.355Z,100818.06
2024-01-11T14:20:38.439Z,100821.85
2024-01-11T14:23:10.453Z,100818.78
2024-01-11T14:25:43.110Z,100811.40
2024-01-11T14:28:15.405Z,100806.63
2024-01-11T14:30:47.381Z,100804.48
2024-01-11T14:33:21.335Z,100806.53
2024-01-11T14:35:54.403Z,100803.47
2024-01-11T14:38:27.357Z,100800.93
2024-01-11T14:40:59.519Z,100803.56
2024-01-11T14:43:31.408Z,100804.86
2024-01-11T14:46:04.324Z,100814.58
2024-01-11T14:48:36.466Z,100817.25
2024-01-11T14:51:09.049Z,100819.70
2024-01-11T14:53:42.045Z,100818.27
2024-01-11T14:56:15.053Z,100821.56
2024-01-11T14:58:47.178Z,100817.73
2024-01-11T15:01:19.377Z,100819.06
2024-01-11T15:03:51.428Z,100829.19
2024-01-11T15:06:23.793Z,100836.66
2024-01-11T15:08:56.213Z,100836.50
2024-01-11T15:11:28.835Z,100834.74
2024-01-11T15:14:01.092Z,100837.26
2024-01-11T15:16:33.935Z,100841.61
2024-01-11T15:19:07.059Z,100851.52
2024-01-11T15:21:42.539Z,100851.00
2024-01-11T15:24:16.655Z,100857.38
2024-01-11T15:26:50.078Z,100863.95
2024-01-11T15:29:23.060Z,100858.32
2024-01-11T15:31:55.453Z,100860.36
2024-01-11T15:34:27.619Z,100860.63
2024-01-11T15:37:00.157Z,100859.97
2024-01-11T15:39:33.426Z,100867.55
2024-01-11T15:42:07.551Z,100876.85
2024-01-11T15:44:41.201Z,100880.72
2024-01-11T15:47:13.242Z,100883.45
2024-01-11T15:49:45.713Z,100880.63
2024-01-11T15:52:17.778Z,100884.12
2024-01-11T15:54:50.278Z,100885.33
2024-01-11T15:57:23.164Z,100890.48
2024-01-11T15:59:55.532Z,100896.16
2024-01-11T16:02:27.522Z,100895.02
2024-01-11T16:04:59.874Z,100896.19
2024-01-11T16:07:31.845Z,100904.02
2024-01-11T16:10:04.011Z,100899.41
2024-01-11T16:12:35.925Z,100904.65
2024-01-11T16:15:09.552Z,100911.31
2024-01-11T16:17:41.671Z,100909.77
2024-01-11T16:20:16.123Z,100911.55
2024-01-11T16:22:51.885Z,100900.61
2024-01-11T16:25:24.712Z,100901.40
2024-01-11T16:27:56.957Z,100896.65
2024-01-11T16:30:29.375Z,100900.20
2024-01-11T16:33:02.560Z,100894.44
2024-01-11T16:35:44.707Z,100901.23
2024-01-11T16:38:22.293Z,100901.14
2024-01-11T16:40:55.768Z,100904.04
2024-01-11T16:43:28.255Z,100907.95
2024-01-11T16:46:00.256Z,100919.16
2024-01-11T16:48:32.394Z,100916.23
2024-01-11T16:51:04.920Z,100920.17
2024-01-11T16:53:36.885Z,100929.38
2024-01-11T16:56:10.212Z,100942.03
2024-01-11T16:58:43.225Z,100943.93
2024-01-11T17:01:15.664Z,100939.11
2024-01-11T17:03:49.816Z,100942.36
2024-01-11T17:06:22.685Z,100949.75
2024-01-11T17:08:54.720Z,100948.29
2024-01-11T17:11:27.032Z,100951.77
2024-01-11T17:13:59.188Z,100954.92
2024-01-11T17:16:31.334Z,100955.39
2024-01-11T17:19:04.003Z,100964.40
2024-01-11T17:21:36.500Z,100953.17
2024-01-11T17:24:16.981Z,100956.00
2024-01-11T17:26:49.061Z,100952.52
2024-01-11T17:29:22.090Z,100952.67
2024-01-11T17:31:54.521Z,100950.80
2024-01-11T17:34:26.489Z,100954.32
2024-01-11T17:36:58.709Z,100964.66
2024-01-11T17:39:31.461Z,100975.58
2024-01-11T17:42:07.506Z,100981.76
2024-01-11T17:44:41.680Z,100975.54
2024-01-11T17:47:13.817Z,100980.95
2024-01-11T17:49:45.969Z,100985.11
2024-01-11T17:52:18.965Z,100981.86
2024-01-11T17:54:51.156Z,100979.67
2024-01-11T17:57:24.627Z,100975.59
2024-01-11T17:59:56.742Z,100975.31
2024-01-11T18:02:33.736Z,100972.23
2024-01-11T18:05:06.989Z,100971.04
2024-01-11T18:07:39.230Z,100973.11
2024-01-11T18:10:11.941Z,100974.58
2024-01-11T18:12:44.177Z,100978.36
2024-01-11T18:15:16.508Z,100977.36
2024-01-11T18:17:48.822Z,100978.64
2024-01-11T18:20:21.433Z,100981.50
2024-01-11T18:22:53.562Z,100980.27
2024-01-11T18:25:25.635Z,100984.92
2024-01-11T18:27:58.006Z,100990.16
2024-01-11T18:30:30.525Z,100994.54
2024-01-11T18:33:03.248Z,100997.77
2024-01-11T18:35:35.392Z,100999.30
2024-01-11T18:38:07.716Z,100998.19
2024-01-11T18:40:43.022Z,100998.66
2024-01-11T18:43:15.186Z,101002.34
2024-01-11T18:45:48.821Z,101010.19
2024-01-11T18:48:23.331Z,101017.99
2024-01-11T18:50:55.930Z,101016.96
2024-01-11T18:53:28.051Z,101010.77
2024-01-11T18:56:00.702Z,101006.24
2024-01-11T18:58:33.292Z,101008.38
2024-01-11T19:01:09.387Z,101007.27
2024-01-11T19:03:42.142Z,101001.94
2024-01-11T19:06:20.778Z,100996.34
2024-01-11T19:08:51.390Z,100997.73
2024-01-11T19:11:26.134Z,100994.58
2024-01-11T19:14:00.937Z,100991.77
2024-01-11T19:16:36.613Z,100992.55
2024-01-11T19:19:12.099Z,100990.79
2024-01-11T19:21:47.687Z,100988.56
2024-01-11T19:24:20.214Z,100989.42
2024-01-11T19:26:52.696Z,100987.04
2024-01-11T19:29:26.168Z,100989.64
2024-01-11T19:32:02.352Z,100989.63
2024-01-11T19:34:37.233Z,100988.73
2024-01-11T19:37:12.725Z,100996.46
2024-01-11T19:39:53.171Z,101000.44
2024-01-11T19:42:25.664Z,100993.03
2024-01-11T19:44:58.315Z,100997.33
2024-01-11T19:47:31.782Z,101000.13
2024-01-11T19:50:04.186Z,100998.55
2024-01-11T19:52:36.310Z,100992.85
2024-01-11T19:55:09.660Z,100983.31
2024-01-11T19:57:43.232Z,100984.88
2024-01-11T20:00:18.282Z,100989.91
2024-01-11T20:02:50.950Z,100988.42
2024-01-11T20:05:23.420Z,100985.80
2024-01-11T20:07:55.219Z,100987.91
2024-01-11T20:10:32.596Z,100992.67
2024-01-11T20:13:05.280Z,100996.27
2024-01-11T20:15:41.142Z,101000.39
2024-01-11T20:18:13.669Z,100997.64
2024-01-11T20:20:46.248Z,100997.56
2024-01-11T20:23:18.505Z,101003.92
2024-01-11T20:25:54.807Z,101008.30
2024-01-11T20:28:27.573Z,101009.16
2024-01-11T20:31:00.046Z,101011.96
2024-01-11T20:33:32.533Z,101009.61
2024-01-11T20:36:07.147Z,101010.07
2024-01-11T20:38:39.621Z,101014.40
2024-01-11T20:41:15.122Z,101017.71
2024-01-11T20:43:47.319Z,101021.05
2024-01-11T20:46:24.201Z,101019.31
2024-01-11T20:48:56.262Z,101021.84
2024-01-11T20:51:28.310Z,101026.75
2024-01-11T20:54:02.250Z,101030.11
2024-01-11T20:56:34.725Z,101028.33
2024-01-11T20:59:06.615Z,101031.77
2024-01-11T21:01:38.711Z,101033.11
2024-01-11T21:04:10.869Z,101033.45
2024-01-11T21:06:43.734Z,101039.94
2024-01-11T21:09:15.834Z,101037.59
2024-01-11T21:11:48.136Z,101033.73
2024-01-11T21:14:21.045Z,101027.92
2024-01-11T21:17:00.565Z,101026.30
2024-01-11T21:19:32.796Z,101029.96
2024-01-11T21:22:05.710Z,101032.02
2024-01-11T21:24:38.694Z,101031.11
2024-01-11T21:27:10.850Z,101025.98
2024-01-11T21:29:43.359Z,101023.05
2024-01-11T21:32:16.121Z,101031.05
2024-01-11T21:34:49.602Z,101033.95
2024-01-11T21:37:21.991Z,101026.46
2024-01-11T21:39:58.096Z,101030.45
2024-01-11T21:42:33.162Z,101027.00
2024-01-11T21:45:09.828Z,101026.50
2024-01-11T21:47:42.713Z,101025.71
2024-01-11T21:50:15.704Z,101024.73
2024-01-11T21:52:48.312Z,101020.37
2024-01-11T21:55:20.503Z,101016.41
2024-01-11T21:57:52.748Z,101016.13
2024-01-11T22:00:24.695Z,101011.92
2024-01-11T22:02:57.470Z,101005.80
2024-01-11T22:05:29.675Z,101009.84
2024-01-11T22:08:02.954Z,101014.55
2024-01-11T22:10:34.721Z,101007.80
2024-01-11T22:13:07.551Z,101007.24
2024-01-11T22:15:40.160Z,101010.08
2024-01-11T22:18:12.620Z,101004.50
2024-01-11T22:20:45.030Z,101003.36
2024-01-11T22:23:17.074Z,101008.41
2024-01-11T22:25:49.193Z,101000.46
2024-01-11T22:28:21.664Z,101002.94
2024-01-11T22:30:54.141Z,101008.65
2024-01-11T22:33:26.085Z,101008.42
2024-01-11T22:35:58.120Z,101004.33
2024-01-11T22:38:30.848Z,101004.30
2024-01-11T22:41:03.657Z,101003.71
2024-01-11T22:43:37.793Z,101002.38
2024-01-11T22:46:10.108Z,100999.11
2024-01-11T22:48:43.029Z,101001.38
2024-01-11T22:51:15.951Z,101003.27
2024-01-11T22:53:48.325Z,101002.08
2024-01-11T22:56:20.425Z,101000.66
2024-01-11T22:58:53.054Z,101000.25
2024-01-11T23:01:25.133Z,100996.67
2024-01-11T23:03:58.045Z,100997.09
2024-01-11T23:06:30.545Z,100990.44
2024-01-11T23:09:02.929Z,100988.79
2024-01-11T23:11:34.880Z,100986.02
2024-01-11T23:14:07.034Z,100986.41
2024-01-11T23:16:39.352Z,100990.90
2024-01-11T23:19:11.437Z,100994.88
2024-01-11T23:21:43.753Z,100990.16
2024-01-11T23:24:16.083Z,100987.65
2024-01-11T23:26:48.279Z,100991.83
2024-01-11T23:29:20.598Z,100989.18
2024-01-11T23:31:52.513Z,100986.63
2024-01-11T23:34:24.696Z,100986.64
2024-01-11T23:36:56.522Z,100986.62
2024-01-11T23:39:28.880Z,100985.73
2024-01-11T23:42:00.848Z,100994.63
2024-01-11T23:44:32.807Z,100994.55
2024-01-11T23:47:04.707Z,100988.77
2024-01-11T23:49:36.786Z,100989.88
2024-01-11T23:52:10.096Z,100989.07
2024-01-11T23:54:42.083Z,100988.41
2024-01-11T23:57:14.408Z,100978.20
2024-01-11T23:59:46.962Z,100977.41
